Terminal Aerodrome Forecast
Issued by NWS Sioux Falls, SD

Home | Current Version | Previous Version | Text Only | Print | Product List | Glossary On
Versions: 1 2 3 4 5 6 7 8 9 10 11 12 13 14 15 16 17 18 19 20 21 22
000
FTUS43 KFSD 251727
TAFHON
TAF
KHON 251727Z 2518/2618 36007KT 2SM -SN SCT008 OVC020
      TEMPO 2518/2522 3/4SM -SN BKN012
     FM252300 36015KT 2SM -SN BR OVC007
     FM260700 35012KT 3SM -SN OVC012
      TEMPO 2607/2611 1SM -SN OVC007
     FM261200 36010KT 5SM -SN OVC012
     FM261600 34012KT P6SM OVC015=

USA.gov is the U.S. government's official web portal to all federal, state and local government web resources and services.